sensor_id;sensor_type;location;lat;lon;timestamp;pressure;altitude;pressure_sealevel;temperature;humidity
59194;BME280;44967;48.598;15.650;2023-04-20T00:00:07;98308.03;;;6.43;77.84
59194;BME280;44967;48.598;15.650;2023-04-20T00:02:38;98307.22;;;6.38;77.45
59194;BME280;44967;48.598;15.650;2023-04-20T00:05:05;98296.75;;;6.34;77.05
59194;BME280;44967;48.598;15.650;2023-04-20T00:07:32;98302.94;;;6.31;77.66
59194;BME280;44967;48.598;15.650;2023-04-20T00:09:59;98292.53;;;6.24;77.65
59194;BME280;44967;48.598;15.650;2023-04-20T00:12:24;98296.00;;;6.27;77.57
59194;BME280;44967;48.598;15.650;2023-04-20T00:14:50;98300.38;;;6.25;77.61
59194;BME280;44967;48.598;15.650;2023-04-20T00:17:16;98303.06;;;6.21;77.59
59194;BME280;44967;48.598;15.650;2023-04-20T00:19:42;98302.28;;;6.15;77.21
59194;BME280;44967;48.598;15.650;2023-04-20T00:22:08;98303.97;;;6.20;77.82
59194;BME280;44967;48.598;15.650;2023-04-20T00:24:34;98303.97;;;6.18;77.97
59194;BME280;44967;48.598;15.650;2023-04-20T00:26:59;98297.06;;;6.11;77.80
59194;BME280;44967;48.598;15.650;2023-04-20T00:29:25;98296.19;;;6.12;77.34
59194;BME280;44967;48.598;15.650;2023-04-20T00:31:51;98292.59;;;6.18;77.36
59194;BME280;44967;48.598;15.650;2023-04-20T00:34:16;98295.28;;;6.16;78.18
59194;BME280;44967;48.598;15.650;2023-04-20T00:36:42;98295.22;;;6.19;78.32
59194;BME280;44967;48.598;15.650;2023-04-20T00:39:09;98291.78;;;6.14;78.67
59194;BME280;44967;48.598;15.650;2023-04-20T00:41:35;98294.34;;;6.17;78.30
59194;BME280;44967;48.598;15.650;2023-04-20T00:44:00;98293.50;;;6.16;78.84
59194;BME280;44967;48.598;15.650;2023-04-20T00:46:27;98283.09;;;6.12;79.14
59194;BME280;44967;48.598;15.650;2023-04-20T00:48:53;98286.53;;;6.14;78.79
59194;BME280;44967;48.598;15.650;2023-04-20T00:51:20;98285.56;;;6.21;78.59
59194;BME280;44967;48.598;15.650;2023-04-20T00:53:46;98286.53;;;6.15;79.06
59194;BME280;44967;48.598;15.650;2023-04-20T00:56:13;98295.28;;;6.16;79.45
59194;BME280;44967;48.598;15.650;2023-04-20T00:58:41;98288.28;;;6.13;78.49
59194;BME280;44967;48.598;15.650;2023-04-20T01:01:06;98283.84;;;6.19;78.79
59194;BME280;44967;48.598;15.650;2023-04-20T01:03:33;98278.72;;;6.09;78.74
59194;BME280;44967;48.598;15.650;2023-04-20T01:06:00;98271.69;;;6.13;78.99
59194;BME280;44967;48.598;15.650;2023-04-20T01:08:26;98269.97;;;6.09;78.92
59194;BME280;44967;48.598;15.650;2023-04-20T01:10:53;98265.66;;;6.05;78.67
59194;BME280;44967;48.598;15.650;2023-04-20T01:13:19;98277.06;;;6.02;78.58
59194;BME280;44967;48.598;15.650;2023-04-20T01:15:45;98270.97;;;6.02;79.25
59194;BME280;44967;48.598;15.650;2023-04-20T01:18:11;98270.13;;;5.97;79.88
59194;BME280;44967;48.598;15.650;2023-04-20T01:20:36;98263.19;;;5.93;79.98
59194;BME280;44967;48.598;15.650;2023-04-20T01:23:03;98273.78;;;5.88;79.37
59194;BME280;44967;48.598;15.650;2023-04-20T01:25:29;98266.84;;;5.78;79.74
59194;BME280;44967;48.598;15.650;2023-04-20T01:27:54;98267.78;;;5.74;80.24
59194;BME280;44967;48.598;15.650;2023-04-20T01:30:20;98268.59;;;5.78;80.54
59194;BME280;44967;48.598;15.650;2023-04-20T01:32:46;98264.31;;;5.70;79.34
59194;BME280;44967;48.598;15.650;2023-04-20T01:35:12;98274.75;;;5.75;79.82
59194;BME280;44967;48.598;15.650;2023-04-20T01:37:39;98272.13;;;5.77;79.70
59194;BME280;44967;48.598;15.650;2023-04-20T01:40:07;98266.09;;;5.68;79.21
59194;BME280;44967;48.598;15.650;2023-04-20T01:42:33;98266.09;;;5.68;79.65
59194;BME280;44967;48.598;15.650;2023-04-20T01:44:59;98267.84;;;5.68;79.40
59194;BME280;44967;48.598;15.650;2023-04-20T01:47:24;98260.91;;;5.62;79.63
59194;BME280;44967;48.598;15.650;2023-04-20T01:49:50;98266.97;;;5.67;79.21
59194;BME280;44967;48.598;15.650;2023-04-20T01:52:16;98266.19;;;5.59;79.53
59194;BME280;44967;48.598;15.650;2023-04-20T01:54:41;98260.19;;;5.51;79.86
59194;BME280;44967;48.598;15.650;2023-04-20T01:57:07;98252.34;;;5.48;80.35
59194;BME280;44967;48.598;15.650;2023-04-20T01:59:33;98249.59;;;5.57;79.46
59194;BME280;44967;48.598;15.650;2023-04-20T02:01:58;98252.22;;;5.60;79.71
59194;BME280;44967;48.598;15.650;2023-04-20T02:04:24;98245.13;;;5.68;80.03
59194;BME280;44967;48.598;15.650;2023-04-20T02:06:50;98246.94;;;5.62;79.59
59194;BME280;44967;48.598;15.650;2023-04-20T02:09:15;98252.13;;;5.65;79.88
59194;BME280;44967;48.598;15.650;2023-04-20T02:11:41;98247.81;;;5.64;80.10
59194;BME280;44967;48.598;15.650;2023-04-20T02:14:07;98247.81;;;5.64;79.81
59194;BME280;44967;48.598;15.650;2023-04-20T02:16:33;98245.19;;;5.62;79.97
59194;BME280;44967;48.598;15.650;2023-04-20T02:18:59;98233.84;;;5.62;80.57
59194;BME280;44967;48.598;15.650;2023-04-20T02:21:25;98247.75;;;5.68;80.29
59194;BME280;44967;48.598;15.650;2023-04-20T02:23:53;98242.47;;;5.72;80.69
59194;BME280;44967;48.598;15.650;2023-04-20T02:26:18;98243.34;;;5.70;79.90
59194;BME280;44967;48.598;15.650;2023-04-20T02:28:44;98245.91;;;5.75;80.50
59194;BME280;44967;48.598;15.650;2023-04-20T02:31:09;98251.22;;;5.70;80.42
59194;BME280;44967;48.598;15.650;2023-04-20T02:33:35;98251.16;;;5.75;80.57
59194;BME280;44967;48.598;15.650;2023-04-20T02:36:01;98241.59;;;5.73;80.70
59194;BME280;44967;48.598;15.650;2023-04-20T02:38:26;98241.56;;;5.74;80.37
59194;BME280;44967;48.598;15.650;2023-04-20T02:40:52;98239.75;;;5.81;79.66
59194;BME280;44967;48.598;15.650;2023-04-20T02:43:18;98238.00;;;5.80;79.97
59194;BME280;44967;48.598;15.650;2023-04-20T02:45:43;98245.81;;;5.83;80.89
59194;BME280;44967;48.598;15.650;2023-04-20T02:48:09;98242.31;;;5.84;79.86
59194;BME280;44967;48.598;15.650;2023-04-20T02:50:36;98241.44;;;5.83;80.77
59194;BME280;44967;48.598;15.650;2023-04-20T02:53:02;98243.16;;;5.86;81.07
59194;BME280;44967;48.598;15.650;2023-04-20T02:55:28;98243.16;;;5.86;80.51
59194;BME280;44967;48.598;15.650;2023-04-20T02:57:54;98237.06;;;5.87;80.52
59194;BME280;44967;48.598;15.650;2023-04-20T03:00:20;98243.16;;;5.86;80.99
59194;BME280;44967;48.598;15.650;2023-04-20T03:02:45;98247.53;;;5.85;81.44
59194;BME280;44967;48.598;15.650;2023-04-20T03:05:11;98251.91;;;5.88;81.03
59194;BME280;44967;48.598;15.650;2023-04-20T03:07:37;98247.50;;;5.91;81.13
59194;BME280;44967;48.598;15.650;2023-04-20T03:10:03;98245.69;;;5.96;81.38
59194;BME280;44967;48.598;15.650;2023-04-20T03:12:30;98251.72;;;6.03;81.83
59194;BME280;44967;48.598;15.650;2023-04-20T03:14:56;98250.00;;;6.00;81.40
59194;BME280;44967;48.598;15.650;2023-04-20T03:17:22;98244.88;;;5.90;81.63
59194;BME280;44967;48.598;15.650;2023-04-20T03:19:47;98247.53;;;5.85;82.71
59194;BME280;44967;48.598;15.650;2023-04-20T03:22:13;98234.44;;;5.87;83.89
59194;BME280;44967;48.598;15.650;2023-04-20T03:24:39;98239.59;;;5.93;82.82
59194;BME280;44967;48.598;15.650;2023-04-20T03:27:05;98234.44;;;5.87;83.06
59194;BME280;44967;48.598;15.650;2023-04-20T03:29:30;98237.91;;;5.89;83.53
59194;BME280;44967;48.598;15.650;2023-04-20T03:31:56;98237.03;;;5.85;83.98
59194;BME280;44967;48.598;15.650;2023-04-20T03:34:21;98235.28;;;5.89;83.88
59194;BME280;44967;48.598;15.650;2023-04-20T03:36:49;98232.69;;;5.87;84.22
59194;BME280;44967;48.598;15.650;2023-04-20T03:39:14;98230.19;;;5.77;83.79
59194;BME280;44967;48.598;15.650;2023-04-20T03:41:40;98226.75;;;5.72;84.06
59194;BME280;44967;48.598;15.650;2023-04-20T03:44:05;98233.69;;;5.74;84.56
59194;BME280;44967;48.598;15.650;2023-04-20T03:46:31;98228.50;;;5.71;84.47
59194;BME280;44967;48.598;15.650;2023-04-20T03:48:57;98234.66;;;5.68;84.87
59194;BME280;44967;48.598;15.650;2023-04-20T03:51:23;98232.81;;;5.74;84.77
59194;BME280;44967;48.598;15.650;2023-04-20T03:53:49;98243.28;;;5.77;84.44
59194;BME280;44967;48.598;15.650;2023-04-20T03:56:16;98238.88;;;5.79;85.07
59194;BME280;44967;48.598;15.650;2023-04-20T03:58:41;98234.50;;;5.81;84.86
59194;BME280;44967;48.598;15.650;2023-04-20T04:01:08;98241.41;;;5.85;84.69
59194;BME280;44967;48.598;15.650;2023-04-20T04:03:35;98237.09;;;5.82;84.53
59194;BME280;44967;48.598;15.650;2023-04-20T04:06:01;98238.84;;;5.82;84.24
59194;BME280;44967;48.598;15.650;2023-04-20T04:08:27;98235.34;;;5.83;84.54
59194;BME280;44967;48.598;15.650;2023-04-20T04:10:52;98230.09;;;5.84;85.38
59194;BME280;44967;48.598;15.650;2023-04-20T04:13:18;98228.34;;;5.83;85.16
59194;BME280;44967;48.598;15.650;2023-04-20T04:15:44;98229.22;;;5.84;84.91
59194;BME280;44967;48.598;15.650;2023-04-20T04:18:10;98227.41;;;5.86;85.11
59194;BME280;44967;48.598;15.650;2023-04-20T04:20:35;98231.84;;;5.84;84.98
59194;BME280;44967;48.598;15.650;2023-04-20T04:23:01;98229.19;;;5.87;85.33
59194;BME280;44967;48.598;15.650;2023-04-20T04:25:27;98227.56;;;5.77;85.61
59194;BME280;44967;48.598;15.650;2023-04-20T04:27:53;98219.59;;;5.81;84.61
59194;BME280;44967;48.598;15.650;2023-04-20T04:30:18;98220.59;;;5.74;85.12
59194;BME280;44967;48.598;15.650;2023-04-20T04:32:44;98219.69;;;5.77;84.91
59194;BME280;44967;48.598;15.650;2023-04-20T04:35:11;98218.78;;;5.78;85.54
59194;BME280;44967;48.598;15.650;2023-04-20T04:37:37;98224.88;;;5.80;85.11
59194;BME280;44967;48.598;15.650;2023-04-20T04:40:03;98216.06;;;5.85;84.87
59194;BME280;44967;48.598;15.650;2023-04-20T04:42:33;98223.91;;;5.91;84.75
59194;BME280;44967;48.598;15.650;2023-04-20T04:44:59;98226.47;;;5.96;85.31
59194;BME280;44967;48.598;15.650;2023-04-20T04:47:27;98227.34;;;5.96;84.75
59194;BME280;44967;48.598;15.650;2023-04-20T04:49:55;98236.03;;;5.97;84.76
59194;BME280;44967;48.598;15.650;2023-04-20T04:52:21;98224.66;;;5.98;85.31
59194;BME280;44967;48.598;15.650;2023-04-20T04:54:47;98229.81;;;6.05;84.73
59194;BME280;44967;48.598;15.650;2023-04-20T04:57:13;98232.38;;;6.10;84.15
59194;BME280;44967;48.598;15.650;2023-04-20T04:59:39;98229.81;;;6.07;84.09
59194;BME280;44967;48.598;15.650;2023-04-20T05:02:05;98234.13;;;6.11;84.01
59194;BME280;44967;48.598;15.650;2023-04-20T05:04:30;98249.00;;;6.10;83.92
59194;BME280;44967;48.598;15.650;2023-04-20T05:06:56;98242.75;;;6.19;83.74
59194;BME280;44967;48.598;15.650;2023-04-20T05:09:22;98242.66;;;6.25;83.66
59194;BME280;44967;48.598;15.650;2023-04-20T05:11:48;98242.66;;;6.25;83.58
59194;BME280;44967;48.598;15.650;2023-04-20T05:14:13;98244.44;;;6.23;84.11
59194;BME280;44967;48.598;15.650;2023-04-20T05:16:39;98241.72;;;6.29;83.73
59194;BME280;44967;48.598;15.650;2023-04-20T05:19:05;98243.47;;;6.29;83.51
59194;BME280;44967;48.598;15.650;2023-04-20T05:21:31;98246.91;;;6.32;83.06
59194;BME280;44967;48.598;15.650;2023-04-20T05:23:57;98258.31;;;6.31;82.80
59194;BME280;44967;48.598;15.650;2023-04-20T05:26:22;98253.84;;;6.36;83.69
59194;BME280;44967;48.598;15.650;2023-04-20T05:28:48;98260.78;;;6.40;83.48
59194;BME280;44967;48.598;15.650;2023-04-20T05:31:14;98266.03;;;6.43;82.73
59194;BME280;44967;48.598;15.650;2023-04-20T05:33:40;98258.91;;;6.50;82.84
59194;BME280;44967;48.598;15.650;2023-04-20T05:36:08;98252.84;;;6.45;82.59
59194;BME280;44967;48.598;15.650;2023-04-20T05:38:34;98260.72;;;6.46;82.50
59194;BME280;44967;48.598;15.650;2023-04-20T05:41:00;98262.34;;;6.55;82.20
59194;BME280;44967;48.598;15.650;2023-04-20T05:43:26;98258.84;;;6.54;82.86
59194;BME280;44967;48.598;15.650;2023-04-20T05:45:51;98256.03;;;6.67;83.12
59194;BME280;44967;48.598;15.650;2023-04-20T05:48:20;98261.28;;;6.67;82.36
59194;BME280;44967;48.598;15.650;2023-04-20T05:50:45;98264.69;;;6.72;82.89
59194;BME280;44967;48.598;15.650;2023-04-20T05:53:11;98255.88;;;6.76;82.48
59194;BME280;44967;48.598;15.650;2023-04-20T05:55:37;98254.97;;;6.78;82.66
59194;BME280;44967;48.598;15.650;2023-04-20T05:58:02;98248.03;;;6.74;83.12
59194;BME280;44967;48.598;15.650;2023-04-20T06:00:31;98252.28;;;6.83;83.29
59194;BME280;44967;48.598;15.650;2023-04-20T06:02:56;98255.81;;;6.80;82.04
59194;BME280;44967;48.598;15.650;2023-04-20T06:05:22;98259.34;;;6.78;82.77
59194;BME280;44967;48.598;15.650;2023-04-20T06:07:48;98251.59;;;6.70;82.42
59194;BME280;44967;48.598;15.650;2023-04-20T06:10:13;98253.16;;;6.82;82.17
59194;BME280;44967;48.598;15.650;2023-04-20T06:12:39;98262.63;;;6.92;82.57
59194;BME280;44967;48.598;15.650;2023-04-20T06:15:05;98259.09;;;6.93;81.61
59194;BME280;44967;48.598;15.650;2023-04-20T06:17:36;98269.72;;;6.87;81.17
59194;BME280;44967;48.598;15.650;2023-04-20T06:20:06;98279.34;;;6.86;81.60
59194;BME280;44967;48.598;15.650;2023-04-20T06:22:32;98275.00;;;6.84;82.34
59194;BME280;44967;48.598;15.650;2023-04-20T06:24:59;98277.59;;;6.87;82.32
59194;BME280;44967;48.598;15.650;2023-04-20T06:27:25;98271.38;;;6.92;82.38
59194;BME280;44967;48.598;15.650;2023-04-20T06:29:50;98265.28;;;6.90;82.59
59194;BME280;44967;48.598;15.650;2023-04-20T06:32:16;98271.28;;;6.98;82.49
59194;BME280;44967;48.598;15.650;2023-04-20T06:34:42;98269.53;;;6.99;82.78
59194;BME280;44967;48.598;15.650;2023-04-20T06:37:08;98278.09;;;7.08;82.07
59194;BME280;44967;48.598;15.650;2023-04-20T06:39:33;98276.34;;;7.09;82.80
59194;BME280;44967;48.598;15.650;2023-04-20T06:42:00;98279.13;;;7.00;80.89
59194;BME280;44967;48.598;15.650;2023-04-20T06:44:27;98280.97;;;6.95;80.73
59194;BME280;44967;48.598;15.650;2023-04-20T06:46:52;98279.97;;;7.02;81.53
59194;BME280;44967;48.598;15.650;2023-04-20T06:49:18;98280.78;;;7.07;81.30
59194;BME280;44967;48.598;15.650;2023-04-20T06:51:44;98278.97;;;7.09;80.67
59194;BME280;44967;48.598;15.650;2023-04-20T06:54:10;98279.97;;;7.02;80.99
59194;BME280;44967;48.598;15.650;2023-04-20T06:56:35;98284.09;;;7.15;81.86
59194;BME280;44967;48.598;15.650;2023-04-20T06:59:01;98281.34;;;7.24;80.81
59194;BME280;44967;48.598;15.650;2023-04-20T07:01:27;98278.84;;;7.15;80.66
59194;BME280;44967;48.598;15.650;2023-04-20T07:03:53;98271.03;;;7.12;81.63
59194;BME280;44967;48.598;15.650;2023-04-20T07:06:18;98286.66;;;7.21;80.93
59194;BME280;44967;48.598;15.650;2023-04-20T07:08:44;98285.59;;;7.31;81.37
59194;BME280;44967;48.598;15.650;2023-04-20T07:11:09;98283.00;;;7.30;81.29
59194;BME280;44967;48.598;15.650;2023-04-20T07:13:35;98278.50;;;7.36;81.25
59194;BME280;44967;48.598;15.650;2023-04-20T07:16:01;98281.25;;;7.30;80.67
59194;BME280;44967;48.598;15.650;2023-04-20T07:18:27;98281.13;;;7.36;80.87
59194;BME280;44967;48.598;15.650;2023-04-20T07:20:53;98287.09;;;7.46;80.24
59194;BME280;44967;48.598;15.650;2023-04-20T07:23:18;98280.16;;;7.40;80.72
59194;BME280;44967;48.598;15.650;2023-04-20T07:25:46;98285.63;;;7.30;80.26
59194;BME280;44967;48.598;15.650;2023-04-20T07:28:11;98288.00;;;7.43;81.28
59194;BME280;44967;48.598;15.650;2023-04-20T07:30:37;98280.06;;;7.46;80.26
59194;BME280;44967;48.598;15.650;2023-04-20T07:33:03;98280.09;;;7.43;80.33
59194;BME280;44967;48.598;15.650;2023-04-20T07:35:28;98273.00;;;7.48;80.51
59194;BME280;44967;48.598;15.650;2023-04-20T07:37:54;98279.13;;;7.49;80.62
59194;BME280;44967;48.598;15.650;2023-04-20T07:40:20;98277.31;;;7.54;80.86
59194;BME280;44967;48.598;15.650;2023-04-20T07:42:45;98289.44;;;7.61;81.03
59194;BME280;44967;48.598;15.650;2023-04-20T07:45:12;98285.88;;;7.64;80.75
59194;BME280;44967;48.598;15.650;2023-04-20T07:47:38;98291.94;;;7.67;80.39
59194;BME280;44967;48.598;15.650;2023-04-20T07:50:05;98288.31;;;7.74;80.20
59194;BME280;44967;48.598;15.650;2023-04-20T07:52:31;98287.59;;;7.65;79.80
59194;BME280;44967;48.598;15.650;2023-04-20T07:54:57;98292.13;;;7.56;81.39
59194;BME280;44967;48.598;15.650;2023-04-20T07:57:24;98292.97;;;7.58;80.74
59194;BME280;44967;48.598;15.650;2023-04-20T07:59:51;98304.22;;;7.67;80.23
59194;BME280;44967;48.598;15.650;2023-04-20T08:02:17;98298.94;;;7.67;79.91
59194;BME280;44967;48.598;15.650;2023-04-20T08:04:42;98289.34;;;7.66;80.31
59194;BME280;44967;48.598;15.650;2023-04-20T08:07:11;98305.13;;;7.66;80.12
59194;BME280;44967;48.598;15.650;2023-04-20T08:09:36;98305.00;;;7.72;80.17
59194;BME280;44967;48.598;15.650;2023-04-20T08:12:03;98294.78;;;7.56;80.14
59194;BME280;44967;48.598;15.650;2023-04-20T08:14:28;98298.22;;;7.60;80.13
59194;BME280;44967;48.598;15.650;2023-04-20T08:16:54;98302.72;;;7.53;79.85
59194;BME280;44967;48.598;15.650;2023-04-20T08:19:20;98306.84;;;7.67;79.88
59194;BME280;44967;48.598;15.650;2023-04-20T08:21:45;98309.44;;;7.70;79.46
59194;BME280;44967;48.598;15.650;2023-04-20T08:24:11;98311.22;;;7.68;79.29
59194;BME280;44967;48.598;15.650;2023-04-20T08:26:38;98302.28;;;7.76;79.95
59194;BME280;44967;48.598;15.650;2023-04-20T08:29:03;98311.13;;;7.74;79.69
59194;BME280;44967;48.598;15.650;2023-04-20T08:31:30;98310.84;;;7.87;80.13
59194;BME280;44967;48.598;15.650;2023-04-20T08:33:56;98310.69;;;7.95;80.26
59194;BME280;44967;48.598;15.650;2023-04-20T08:36:21;98310.59;;;7.99;79.42
59194;BME280;44967;48.598;15.650;2023-04-20T08:38:56;98309.47;;;8.11;79.86
59194;BME280;44967;48.598;15.650;2023-04-20T08:41:24;98304.22;;;8.11;79.88
59194;BME280;44967;48.598;15.650;2023-04-20T08:43:50;98305.00;;;8.15;79.73
59194;BME280;44967;48.598;15.650;2023-04-20T08:46:16;98297.97;;;8.17;79.62
59194;BME280;44967;48.598;15.650;2023-04-20T08:48:44;98304.91;;;8.21;79.34
59194;BME280;44967;48.598;15.650;2023-04-20T08:51:10;98296.94;;;8.22;79.01
59194;BME280;44967;48.598;15.650;2023-04-20T08:53:36;98289.13;;;8.19;78.74
59194;BME280;44967;48.598;15.650;2023-04-20T08:56:02;98290.72;;;8.29;79.52
59194;BME280;44967;48.598;15.650;2023-04-20T08:58:29;98285.94;;;8.46;77.00
59194;BME280;44967;48.598;15.650;2023-04-20T09:00:58;98286.53;;;8.59;77.89
59194;BME280;44967;48.598;15.650;2023-04-20T09:03:38;98275.28;;;8.52;77.25
59194;BME280;44967;48.598;15.650;2023-04-20T09:06:05;98277.69;;;8.62;78.21
59194;BME280;44967;48.598;15.650;2023-04-20T09:08:39;98273.94;;;8.72;78.26
59194;BME280;44967;48.598;15.650;2023-04-20T09:11:05;98279.66;;;8.89;77.48
59194;BME280;44967;48.598;15.650;2023-04-20T09:13:33;98275.56;;;8.77;78.09
59194;BME280;44967;48.598;15.650;2023-04-20T09:16:10;98279.06;;;8.78;77.56
59194;BME280;44967;48.598;15.650;2023-04-20T09:18:37;98281.66;;;8.81;77.82
59194;BME280;44967;48.598;15.650;2023-04-20T09:21:09;98292.28;;;8.76;77.94
59194;BME280;44967;48.598;15.650;2023-04-20T09:23:35;98291.34;;;8.77;78.79
59194;BME280;44967;48.598;15.650;2023-04-20T09:26:01;98283.41;;;8.80;77.98
59194;BME280;44967;48.598;15.650;2023-04-20T09:28:36;98281.47;;;8.87;78.60
59194;BME280;44967;48.598;15.650;2023-04-20T09:31:16;98282.28;;;8.90;78.26
59194;BME280;44967;48.598;15.650;2023-04-20T09:33:42;98285.88;;;8.86;77.96
59194;BME280;44967;48.598;15.650;2023-04-20T09:36:08;98289.22;;;8.93;78.27
59194;BME280;44967;48.598;15.650;2023-04-20T09:38:35;98290.06;;;8.95;78.50
59194;BME280;44967;48.598;15.650;2023-04-20T09:41:01;98286.53;;;8.96;78.01
59194;BME280;44967;48.598;15.650;2023-04-20T09:43:28;98286.53;;;8.96;77.35
59194;BME280;44967;48.598;15.650;2023-04-20T09:45:54;98289.31;;;8.90;76.88
59194;BME280;44967;48.598;15.650;2023-04-20T09:48:20;98278.69;;;8.93;77.20
59194;BME280;44967;48.598;15.650;2023-04-20T09:50:47;98269.56;;;9.08;77.19
59194;BME280;44967;48.598;15.650;2023-04-20T09:53:16;98268.47;;;9.16;76.77
59194;BME280;44967;48.598;15.650;2023-04-20T09:55:49;98269.94;;;9.26;75.92
59194;BME280;44967;48.598;15.650;2023-04-20T09:58:19;98263.13;;;9.18;76.48
59194;BME280;44967;48.598;15.650;2023-04-20T10:00:45;98261.94;;;9.31;77.05
59194;BME280;44967;48.598;15.650;2023-04-20T10:03:15;98275.06;;;9.32;76.33
59194;BME280;44967;48.598;15.650;2023-04-20T10:05:40;98270.31;;;9.46;76.60
59194;BME280;44967;48.598;15.650;2023-04-20T10:08:07;98274.63;;;9.49;76.78
59194;BME280;44967;48.598;15.650;2023-04-20T10:10:48;98272.41;;;9.66;75.61
59194;BME280;44967;48.598;15.650;2023-04-20T10:13:15;98267.25;;;9.62;75.47
59194;BME280;44967;48.598;15.650;2023-04-20T10:15:43;98266.00;;;9.75;75.19
59194;BME280;44967;48.598;15.650;2023-04-20T10:18:18;98263.94;;;9.86;75.52
59194;BME280;44967;48.598;15.650;2023-04-20T10:20:45;98252.25;;;9.94;74.98
59194;BME280;44967;48.598;15.650;2023-04-20T10:23:11;98257.53;;;9.94;75.46
59194;BME280;44967;48.598;15.650;2023-04-20T10:25:38;98257.81;;;10.16;75.25
59194;BME280;44967;48.598;15.650;2023-04-20T10:28:05;98257.13;;;10.08;75.27
59194;BME280;44967;48.598;15.650;2023-04-20T10:30:34;98261.81;;;10.29;74.29
59194;BME280;44967;48.598;15.650;2023-04-20T10:33:10;98263.28;;;10.09;74.35
59194;BME280;44967;48.598;15.650;2023-04-20T10:35:52;98249.06;;;10.13;74.94
59194;BME280;44967;48.598;15.650;2023-04-20T10:40:54;98245.88;;;10.32;74.23
59194;BME280;44967;48.598;15.650;2023-04-20T10:43:21;98252.34;;;10.22;75.35
59194;BME280;44967;48.598;15.650;2023-04-20T10:45:48;98247.28;;;10.44;75.19
59194;BME280;44967;48.598;15.650;2023-04-20T10:48:14;98250.31;;;10.60;75.26
59194;BME280;44967;48.598;15.650;2023-04-20T10:50:40;98251.63;;;10.47;72.74
59194;BME280;44967;48.598;15.650;2023-04-20T10:53:18;98242.81;;;10.74;74.27
59194;BME280;44967;48.598;15.650;2023-04-20T10:55:43;98235.00;;;10.97;72.98
59194;BME280;44967;48.598;15.650;2023-04-20T10:58:20;98233.31;;;10.95;73.04
59194;BME280;44967;48.598;15.650;2023-04-20T11:00:55;98232.75;;;11.11;73.40
59194;BME280;44967;48.598;15.650;2023-04-20T11:03:21;98238.06;;;11.11;72.80
59194;BME280;44967;48.598;15.650;2023-04-20T11:05:48;98235.09;;;11.20;72.57
59194;BME280;44967;48.598;15.650;2023-04-20T11:08:14;98231.22;;;11.30;72.26
59194;BME280;44967;48.598;15.650;2023-04-20T11:10:41;98223.94;;;11.62;71.45
59194;BME280;44967;48.598;15.650;2023-04-20T11:13:18;98218.06;;;11.78;70.76
59194;BME280;44967;48.598;15.650;2023-04-20T11:15:44;98220.38;;;11.88;70.02
59194;BME280;44967;48.598;15.650;2023-04-20T11:18:10;98225.94;;;12.05;70.28
59194;BME280;44967;48.598;15.650;2023-04-20T11:20:56;98220.50;;;12.08;69.64
59194;BME280;44967;48.598;15.650;2023-04-20T11:23:23;98219.97;;;12.21;68.10
59194;BME280;44967;48.598;15.650;2023-04-20T11:25:56;98218.94;;;12.25;69.18
59194;BME280;44967;48.598;15.650;2023-04-20T11:28:22;98213.63;;;12.25;68.77
59194;BME280;44967;48.598;15.650;2023-04-20T11:30:48;98210.59;;;12.58;68.20
59194;BME280;44967;48.598;15.650;2023-04-20T11:33:27;98203.63;;;12.55;68.86
59194;BME280;44967;48.598;15.650;2023-04-20T11:35:55;98203.19;;;12.66;67.94
59194;BME280;44967;48.598;15.650;2023-04-20T11:38:32;98201.53;;;12.85;67.32
59194;BME280;44967;48.598;15.650;2023-04-20T11:40:58;98204.50;;;12.56;66.70
59194;BME280;44967;48.598;15.650;2023-04-20T11:43:32;98209.19;;;12.71;67.66
59194;BME280;44967;48.598;15.650;2023-04-20T11:46:01;98203.81;;;12.94;67.06
59194;BME280;44967;48.598;15.650;2023-04-20T11:48:29;98196.00;;;12.91;67.10
59194;BME280;44967;48.598;15.650;2023-04-20T11:50:57;98194.34;;;13.09;67.81
59194;BME280;44967;48.598;15.650;2023-04-20T11:53:22;98199.31;;;13.18;67.11
59194;BME280;44967;48.598;15.650;2023-04-20T11:55:48;98188.88;;;13.13;65.73
59194;BME280;44967;48.598;15.650;2023-04-20T11:58:14;98202.69;;;13.21;66.29
59194;BME280;44967;48.598;15.650;2023-04-20T12:00:41;98201.25;;;13.35;65.75
59194;BME280;44967;48.598;15.650;2023-04-20T12:03:06;98180.25;;;13.69;64.58
59194;BME280;44967;48.598;15.650;2023-04-20T12:05:32;98188.34;;;13.66;64.02
59194;BME280;44967;48.598;15.650;2023-04-20T12:07:58;98186.28;;;13.73;64.61
59194;BME280;44967;48.598;15.650;2023-04-20T12:10:24;98187.91;;;13.75;63.64
59194;BME280;44967;48.598;15.650;2023-04-20T12:12:49;98192.44;;;13.73;63.53
59194;BME280;44967;48.598;15.650;2023-04-20T12:15:15;98195.47;;;13.84;63.31
59194;BME280;44967;48.598;15.650;2023-04-20T12:17:41;98189.31;;;14.02;63.40
59194;BME280;44967;48.598;15.650;2023-04-20T12:20:07;98179.09;;;14.13;63.26
59194;BME280;44967;48.598;15.650;2023-04-20T12:22:35;98184.75;;;14.25;62.37
59194;BME280;44967;48.598;15.650;2023-04-20T12:25:01;98185.47;;;14.28;62.46
59194;BME280;44967;48.598;15.650;2023-04-20T12:27:27;98184.44;;;14.31;60.65
59194;BME280;44967;48.598;15.650;2023-04-20T12:29:53;98173.69;;;14.34;62.10
59194;BME280;44967;48.598;15.650;2023-04-20T12:32:19;98183.19;;;14.21;61.76
59194;BME280;44967;48.598;15.650;2023-04-20T12:34:44;98173.56;;;14.37;62.17
59194;BME280;44967;48.598;15.650;2023-04-20T12:37:10;98178.09;;;14.53;62.37
59194;BME280;44967;48.598;15.650;2023-04-20T12:39:36;98183.03;;;14.61;61.51
59194;BME280;44967;48.598;15.650;2023-04-20T12:42:01;98167.25;;;14.75;61.22
59194;BME280;44967;48.598;15.650;2023-04-20T12:44:28;98163.28;;;14.84;60.62
59194;BME280;44967;48.598;15.650;2023-04-20T12:46:53;98161.50;;;15.01;61.11
59194;BME280;44967;48.598;15.650;2023-04-20T12:49:19;98161.75;;;15.14;60.47
59194;BME280;44967;48.598;15.650;2023-04-20T12:51:45;98168.09;;;15.12;59.29
59194;BME280;44967;48.598;15.650;2023-04-20T12:54:10;98158.78;;;15.03;59.37
59194;BME280;44967;48.598;15.650;2023-04-20T12:56:36;98161.34;;;14.87;60.18